createdAt,value
2022-10-30T00:00:51.061Z,7.68
2022-10-30T00:03:18.701Z,7.80
2022-10-30T00:05:47.800Z,8.63
2022-10-30T00:08:17.359Z,7.55
2022-10-30T00:10:44.914Z,7.38
2022-10-30T00:13:12.348Z,7.95
2022-10-30T00:15:39.962Z,7.55
2022-10-30T00:18:06.789Z,7.65
2022-10-30T00:20:35.836Z,8.25
2022-10-30T00:23:02.723Z,8.32
2022-10-30T00:25:29.496Z,8.02
2022-10-30T00:27:56.256Z,8.40
2022-10-30T00:30:23.059Z,7.70
2022-10-30T00:32:49.815Z,8.30
2022-10-30T00:35:16.693Z,7.05
2022-10-30T00:37:43.532Z,7.40
2022-10-30T00:40:16.125Z,7.10
2022-10-30T00:42:43.504Z,6.88
2022-10-30T00:45:15.327Z,6.85
2022-10-30T00:48:04.086Z,7.57
2022-10-30T00:50:36.486Z,7.00
2022-10-30T00:53:12.638Z,6.72
2022-10-30T00:55:46.776Z,6.15
2022-10-30T00:58:17.433Z,6.38
2022-10-30T01:00:50.740Z,6.30
2022-10-30T01:03:20.576Z,6.55
2022-10-30T01:05:52.588Z,7.35
2022-10-30T01:08:19.769Z,6.77
2022-10-30T01:10:48.113Z,5.95
2022-10-30T01:13:15.694Z,6.43
2022-10-30T01:16:01.966Z,6.55
2022-10-30T01:19:06.855Z,6.72
2022-10-30T01:21:58.276Z,6.90
2022-10-30T01:24:40.266Z,6.97
2022-10-30T01:27:24.284Z,6.65
2022-10-30T01:30:01.995Z,6.45
2022-10-30T01:32:31.831Z,7.25
2022-10-30T01:35:06.519Z,7.43
2022-10-30T01:37:45.885Z,7.88
2022-10-30T01:40:16.745Z,8.05
2022-10-30T01:42:54.777Z,8.00
2022-10-30T01:45:27.354Z,7.25
2022-10-30T01:48:18.512Z,7.63
2022-10-30T01:50:57.350Z,7.55
2022-10-30T01:53:48.986Z,6.50
2022-10-30T01:56:38.130Z,6.68
2022-10-30T01:59:21.313Z,6.90
2022-10-30T02:04:15.775Z,7.45
2022-10-30T02:06:43.058Z,6.55
2022-10-30T02:09:09.917Z,6.93
2022-10-30T02:11:38.704Z,6.28
2022-10-30T02:14:07.862Z,7.50
2022-10-30T02:16:47.231Z,7.60
2022-10-30T02:19:14.000Z,7.10
2022-10-30T02:21:40.945Z,6.88
2022-10-30T02:24:07.844Z,7.70
2022-10-30T02:26:34.830Z,7.03
2022-10-30T02:29:01.738Z,6.43
2022-10-30T02:31:28.913Z,6.40
2022-10-30T02:33:55.661Z,8.00
2022-10-30T02:36:22.456Z,7.30
2022-10-30T02:38:49.228Z,7.03
2022-10-30T02:41:16.117Z,7.30
2022-10-30T02:43:42.905Z,7.15
2022-10-30T02:46:09.645Z,8.02
2022-10-30T02:48:36.427Z,7.28
2022-10-30T02:51:04.615Z,7.75
2022-10-30T02:53:31.511Z,8.23
2022-10-30T02:56:07.291Z,7.65
2022-10-30T02:58:34.118Z,7.75
2022-10-30T03:01:13.213Z,7.20
2022-10-30T03:03:40.657Z,7.45
2022-10-30T03:06:10.451Z,7.28
2022-10-30T03:08:38.008Z,8.05
2022-10-30T03:11:09.644Z,7.45
2022-10-30T03:13:37.560Z,7.22
2022-10-30T03:16:07.121Z,8.00
2022-10-30T03:18:34.265Z,8.02
2022-10-30T03:21:03.753Z,7.65
2022-10-30T03:23:30.825Z,7.50
2022-10-30T03:25:59.207Z,8.25
2022-10-30T03:28:28.539Z,8.25
2022-10-30T03:31:02.198Z,8.93
2022-10-30T03:33:29.455Z,7.90
2022-10-30T03:35:56.677Z,8.65
2022-10-30T03:38:23.551Z,8.18
2022-10-30T03:40:50.561Z,8.25
2022-10-30T03:43:18.306Z,9.55
2022-10-30T03:45:49.784Z,9.52
2022-10-30T03:48:18.168Z,9.02
2022-10-30T03:50:45.386Z,8.60
2022-10-30T03:53:12.505Z,8.50
2022-10-30T03:55:39.451Z,8.15
2022-10-30T03:58:07.470Z,8.55
2022-10-30T04:00:35.438Z,9.35
2022-10-30T04:03:02.839Z,8.25
2022-10-30T04:05:30.837Z,8.18
2022-10-30T04:07:59.758Z,7.93
2022-10-30T04:10:27.004Z,9.27
2022-10-30T04:12:59.628Z,8.57
2022-10-30T04:15:26.715Z,9.73
2022-10-30T04:17:53.589Z,8.57
2022-10-30T04:20:22.255Z,8.50
2022-10-30T04:22:49.308Z,9.10
2022-10-30T04:25:16.207Z,9.18
2022-10-30T04:27:44.247Z,8.95
2022-10-30T04:30:12.753Z,8.63
2022-10-30T04:32:49.675Z,8.98
2022-10-30T04:35:18.655Z,8.77
2022-10-30T04:37:54.348Z,8.75
2022-10-30T04:40:22.451Z,8.52
2022-10-30T04:42:49.245Z,9.10
2022-10-30T04:45:16.635Z,8.57
2022-10-30T04:47:45.315Z,8.43
2022-10-30T04:50:12.559Z,7.95
2022-10-30T04:52:39.825Z,9.30
2022-10-30T04:55:08.228Z,9.45
2022-10-30T04:57:36.956Z,9.38
2022-10-30T05:00:05.613Z,9.68
2022-10-30T05:02:34.361Z,8.57
2022-10-30T05:05:01.274Z,8.88
2022-10-30T05:07:28.024Z,9.43
2022-10-30T05:09:54.759Z,8.98
2022-10-30T05:12:22.312Z,9.07
2022-10-30T05:14:49.101Z,9.32
2022-10-30T05:17:15.967Z,8.88
2022-10-30T05:19:42.781Z,9.95
2022-10-30T05:22:10.419Z,8.57
2022-10-30T05:24:37.236Z,9.68
2022-10-30T05:27:04.093Z,10.05
2022-10-30T05:29:30.929Z,10.00
2022-10-30T05:31:57.733Z,9.90
2022-10-30T05:34:24.468Z,9.00
2022-10-30T05:36:51.255Z,8.98
2022-10-30T05:39:18.004Z,9.68
2022-10-30T05:41:44.778Z,9.85
2022-10-30T05:44:11.627Z,9.45
2022-10-30T05:46:38.420Z,9.38
2022-10-30T05:49:05.257Z,9.02
2022-10-30T05:51:36.484Z,9.75
2022-10-30T05:54:06.620Z,9.93
2022-10-30T05:56:33.413Z,10.68
2022-10-30T05:59:00.360Z,9.95
2022-10-30T06:01:27.270Z,9.48
2022-10-30T06:03:54.151Z,10.23
2022-10-30T06:06:20.914Z,10.73
2022-10-30T06:08:47.780Z,8.95
2022-10-30T06:11:14.562Z,9.50
2022-10-30T06:13:41.440Z,10.00
2022-10-30T06:16:08.234Z,9.48
2022-10-30T06:18:35.038Z,10.25
2022-10-30T06:21:01.801Z,9.27
2022-10-30T06:23:28.626Z,9.82
2022-10-30T06:25:55.392Z,9.30
2022-10-30T06:28:22.615Z,9.35
2022-10-30T06:30:49.376Z,10.07
2022-10-30T06:33:16.129Z,9.73
2022-10-30T06:35:42.927Z,9.77
2022-10-30T06:38:11.998Z,9.68
2022-10-30T06:40:38.841Z,10.00
2022-10-30T06:43:05.662Z,10.98
2022-10-30T06:45:32.536Z,10.13
2022-10-30T06:48:02.202Z,10.27
2022-10-30T06:50:29.326Z,10.25
2022-10-30T06:52:56.084Z,9.57
2022-10-30T06:55:22.964Z,9.68
2022-10-30T06:57:57.721Z,10.10
2022-10-30T07:00:31.512Z,10.75
2022-10-30T07:03:00.248Z,11.57
2022-10-30T07:05:27.494Z,10.57
2022-10-30T07:07:56.998Z,10.43
2022-10-30T07:10:23.803Z,10.68
2022-10-30T07:12:55.072Z,10.90
2022-10-30T07:15:22.935Z,10.88
2022-10-30T07:18:10.202Z,11.02
2022-10-30T07:20:37.275Z,10.07
2022-10-30T07:23:04.457Z,11.38
2022-10-30T07:25:31.258Z,11.02
2022-10-30T07:27:58.589Z,10.98
2022-10-30T07:33:03.626Z,11.45
2022-10-30T07:35:31.978Z,11.10
2022-10-30T07:38:06.248Z,10.45
2022-10-30T07:40:34.071Z,11.38
2022-10-30T07:43:03.000Z,10.98
2022-10-30T07:45:30.616Z,11.32
2022-10-30T07:47:58.217Z,10.77
2022-10-30T07:50:25.315Z,9.82
2022-10-30T07:52:52.098Z,10.48
2022-10-30T07:55:18.990Z,9.88
2022-10-30T07:57:45.888Z,9.80
2022-10-30T08:00:14.533Z,9.27
2022-10-30T08:02:42.010Z,9.70
2022-10-30T08:05:09.828Z,9.55
2022-10-30T08:07:37.964Z,8.68
2022-10-30T08:10:06.139Z,9.48
2022-10-30T08:12:34.305Z,8.93
2022-10-30T08:15:01.493Z,7.80
2022-10-30T08:17:28.735Z,8.07
2022-10-30T08:19:57.117Z,8.02
2022-10-30T08:22:24.579Z,7.43
2022-10-30T08:24:51.582Z,7.97
2022-10-30T08:27:18.348Z,6.82
2022-10-30T08:29:45.147Z,7.07
2022-10-30T08:32:12.086Z,8.32
2022-10-30T08:34:38.895Z,7.05
2022-10-30T08:37:08.055Z,6.47
2022-10-30T08:39:34.972Z,7.30
2022-10-30T08:42:01.887Z,6.28
2022-10-30T08:44:28.663Z,6.95
2022-10-30T08:46:55.506Z,6.15
2022-10-30T08:49:22.312Z,6.72
2022-10-30T08:51:49.124Z,7.10
2022-10-30T08:54:16.012Z,6.50
2022-10-30T08:56:42.776Z,6.88
2022-10-30T08:59:09.610Z,6.13
2022-10-30T09:01:36.883Z,6.32
2022-10-30T09:04:04.045Z,6.82
2022-10-30T09:06:31.881Z,6.80
2022-10-30T09:08:58.818Z,6.10
2022-10-30T09:11:25.650Z,6.53
2022-10-30T09:13:52.581Z,6.40
2022-10-30T09:16:19.387Z,6.72
2022-10-30T09:18:46.135Z,6.50
2022-10-30T09:21:12.952Z,6.82
2022-10-30T09:23:39.699Z,6.38
2022-10-30T09:26:06.495Z,6.47
2022-10-30T09:28:33.303Z,6.85
2022-10-30T09:31:03.989Z,5.78
2022-10-30T09:33:30.931Z,6.35
2022-10-30T09:35:57.687Z,5.60
2022-10-30T09:38:24.594Z,5.75
2022-10-30T09:41:11.899Z,5.68
2022-10-30T09:44:01.634Z,5.97
2022-10-30T09:46:31.385Z,6.25
2022-10-30T09:49:06.899Z,5.65
2022-10-30T09:52:15.618Z,6.15
2022-10-30T09:54:59.574Z,5.45
2022-10-30T09:57:45.732Z,6.25
2022-10-30T10:00:17.087Z,6.00
2022-10-30T10:03:15.639Z,5.65
2022-10-30T10:05:53.710Z,6.10
2022-10-30T10:08:41.001Z,6.00
2022-10-30T10:11:21.520Z,5.38
2022-10-30T10:14:17.830Z,5.38
2022-10-30T10:16:53.101Z,5.28
2022-10-30T10:19:32.517Z,6.07
2022-10-30T10:22:01.983Z,5.40
2022-10-30T10:24:30.882Z,5.00
2022-10-30T10:27:14.504Z,5.80
2022-10-30T10:29:41.248Z,5.53
2022-10-30T10:32:44.999Z,5.28
2022-10-30T10:35:30.778Z,5.68
2022-10-30T10:38:12.996Z,5.03
2022-10-30T10:41:19.332Z,4.67
2022-10-30T10:44:13.753Z,4.68
2022-10-30T10:46:43.612Z,5.10
2022-10-30T10:49:39.227Z,4.65
2022-10-30T10:52:23.781Z,4.15
2022-10-30T10:54:55.531Z,5.55
2022-10-30T10:57:43.601Z,4.70
2022-10-30T11:00:25.680Z,5.20
2022-10-30T11:03:07.526Z,5.07
2022-10-30T11:05:56.513Z,4.70
2022-10-30T11:08:27.844Z,4.45
2022-10-30T11:11:06.460Z,4.95
2022-10-30T11:13:44.200Z,4.80
2022-10-30T11:16:29.410Z,4.68
2022-10-30T11:19:00.452Z,5.07
2022-10-30T11:21:32.541Z,5.32
2022-10-30T11:23:59.437Z,4.82
2022-10-30T11:26:29.564Z,4.78
2022-10-30T11:29:06.695Z,4.57
2022-10-30T11:31:37.992Z,5.40
2022-10-30T11:34:18.631Z,4.50
2022-10-30T11:36:47.923Z,4.95
2022-10-30T11:39:19.163Z,4.90
2022-10-30T11:42:09.442Z,5.88
2022-10-30T11:44:41.249Z,4.40
2022-10-30T11:47:09.281Z,4.47
2022-10-30T11:49:39.005Z,5.03
2022-10-30T11:52:08.062Z,4.93
2022-10-30T11:54:39.576Z,4.50
2022-10-30T11:57:43.755Z,4.90
2022-10-30T12:00:21.460Z,4.18
2022-10-30T12:02:53.390Z,4.68
2022-10-30T12:05:29.255Z,5.00
2022-10-30T12:08:16.044Z,4.90
2022-10-30T12:10:47.458Z,4.38
2022-10-30T12:13:16.706Z,4.25
2022-10-30T12:15:45.371Z,4.25
2022-10-30T12:18:22.574Z,4.68
2022-10-30T12:20:54.133Z,4.15
2022-10-30T12:23:24.901Z,4.20
2022-10-30T12:25:58.844Z,4.40
2022-10-30T12:28:29.051Z,3.80
2022-10-30T12:31:27.663Z,4.80
2022-10-30T12:34:07.514Z,4.28
2022-10-30T12:36:41.707Z,4.07
2022-10-30T12:39:20.669Z,4.15
2022-10-30T12:42:02.950Z,4.95
2022-10-30T12:44:53.160Z,4.00
2022-10-30T12:47:39.465Z,4.28
2022-10-30T12:50:45.189Z,4.82
2022-10-30T12:53:20.756Z,4.07
2022-10-30T12:56:00.228Z,4.55
2022-10-30T12:58:48.379Z,4.85
2022-10-30T13:01:31.805Z,4.45
2022-10-30T13:04:22.828Z,4.47
2022-10-30T13:06:58.009Z,3.90
2022-10-30T13:09:42.644Z,4.30
2022-10-30T13:12:35.399Z,4.03
2022-10-30T13:15:24.982Z,4.65
2022-10-30T13:17:52.015Z,5.72
2022-10-30T13:20:19.881Z,4.72
2022-10-30T13:22:53.048Z,5.97
2022-10-30T13:25:55.221Z,4.15
2022-10-30T13:28:28.140Z,4.97
2022-10-30T13:31:21.745Z,4.13
2022-10-30T13:33:53.438Z,3.95
2022-10-30T13:36:30.772Z,4.32
2022-10-30T13:39:36.478Z,4.30
2022-10-30T13:42:31.259Z,4.63
2022-10-30T13:45:07.151Z,3.70
2022-10-30T13:48:12.536Z,4.65
2022-10-30T13:51:09.787Z,4.30
2022-10-30T13:53:40.536Z,5.63
2022-10-30T13:56:15.134Z,4.63
2022-10-30T13:59:01.915Z,4.47
2022-10-30T14:01:51.303Z,4.55
2022-10-30T14:04:38.572Z,4.20
2022-10-30T14:07:30.455Z,4.40
2022-10-30T14:10:08.732Z,4.95
2022-10-30T14:12:52.794Z,4.03
2022-10-30T14:15:40.630Z,4.35
2022-10-30T14:18:13.709Z,4.80
2022-10-30T14:20:46.703Z,4.35
2022-10-30T14:23:16.222Z,3.95
2022-10-30T14:25:43.159Z,4.13
2022-10-30T14:28:20.827Z,4.10
2022-10-30T14:30:47.724Z,4.35
2022-10-30T14:33:45.670Z,4.72
2022-10-30T14:36:13.332Z,5.05
2022-10-30T14:38:40.121Z,4.68
2022-10-30T14:41:18.788Z,4.38
2022-10-30T14:44:19.527Z,4.47
2022-10-30T14:47:21.591Z,5.03
2022-10-30T14:50:13.041Z,5.18
2022-10-30T14:52:48.809Z,4.95
2022-10-30T14:55:52.854Z,4.68
2022-10-30T14:58:29.418Z,5.20
2022-10-30T15:01:16.291Z,4.65
2022-10-30T15:04:06.663Z,4.60
2022-10-30T15:07:04.252Z,5.00
2022-10-30T15:10:08.652Z,5.03
2022-10-30T15:12:41.446Z,4.97
2022-10-30T15:18:07.629Z,5.50
2022-10-30T15:20:35.732Z,5.80
2022-10-30T15:23:06.880Z,4.60
2022-10-30T15:25:38.490Z,4.82
2022-10-30T15:28:05.932Z,4.43
2022-10-30T15:30:32.720Z,4.95
2022-10-30T15:32:59.824Z,5.20
2022-10-30T15:35:28.716Z,4.93
2022-10-30T15:38:03.574Z,4.88
2022-10-30T15:40:31.150Z,4.82
2022-10-30T15:43:01.173Z,4.70
2022-10-30T15:45:43.458Z,5.07
2022-10-30T15:48:28.186Z,4.97
2022-10-30T15:51:05.706Z,5.38
2022-10-30T15:53:35.590Z,5.28
2022-10-30T15:56:03.189Z,5.57
2022-10-30T15:58:37.424Z,5.93
2022-10-30T16:01:04.572Z,5.28
2022-10-30T16:03:32.764Z,5.30
2022-10-30T16:06:15.446Z,5.32
2022-10-30T16:08:48.728Z,5.47
2022-10-30T16:11:16.107Z,5.28
2022-10-30T16:13:43.456Z,5.60
2022-10-30T16:16:36.392Z,5.68
2022-10-30T16:19:04.993Z,4.85
2022-10-30T16:21:32.284Z,4.75
2022-10-30T16:24:01.159Z,5.40
2022-10-30T16:26:30.127Z,5.40
2022-10-30T16:28:58.897Z,5.22
2022-10-30T16:31:30.627Z,5.32
2022-10-30T16:33:58.755Z,4.53
2022-10-30T16:36:26.122Z,4.50
2022-10-30T16:38:54.344Z,5.10
2022-10-30T16:41:26.536Z,6.28
2022-10-30T16:44:24.539Z,9.30
2022-10-30T16:46:57.511Z,9.25
2022-10-30T16:49:28.101Z,9.32
2022-10-30T16:52:02.731Z,8.13
2022-10-30T16:54:35.507Z,6.68
2022-10-30T16:57:03.761Z,7.57
2022-10-30T16:59:44.202Z,5.72
2022-10-30T17:02:21.139Z,6.70
2022-10-30T17:04:55.510Z,6.88
2022-10-30T17:07:26.551Z,5.90
2022-10-30T17:09:56.795Z,6.07
2022-10-30T17:12:25.404Z,6.78
2022-10-30T17:15:04.282Z,5.82
2022-10-30T17:17:35.148Z,6.55
2022-10-30T17:20:13.515Z,7.00
2022-10-30T17:22:40.717Z,6.32
2022-10-30T17:25:32.987Z,6.30
2022-10-30T17:27:59.752Z,6.90
2022-10-30T17:30:43.297Z,6.53
2022-10-30T17:33:43.890Z,6.82
2022-10-30T17:36:11.248Z,6.30
2022-10-30T17:38:38.348Z,6.78
2022-10-30T17:41:07.073Z,6.55
2022-10-30T17:43:49.191Z,7.07
2022-10-30T17:46:20.154Z,7.10
2022-10-30T17:48:47.777Z,7.65
2022-10-30T17:51:15.841Z,7.13
2022-10-30T17:53:43.457Z,7.57
2022-10-30T17:56:20.687Z,6.45
2022-10-30T17:58:47.708Z,7.15
2022-10-30T18:01:18.596Z,7.93
2022-10-30T18:03:45.900Z,7.13
2022-10-30T18:06:27.443Z,8.30
2022-10-30T18:08:55.181Z,7.53
2022-10-30T18:11:24.456Z,7.38
2022-10-30T18:13:52.876Z,7.15
2022-10-30T18:16:20.160Z,8.10
2022-10-30T18:18:47.420Z,8.02
2022-10-30T18:21:22.840Z,7.82
2022-10-30T18:23:52.741Z,9.23
2022-10-30T18:26:25.682Z,9.05
2022-10-30T18:28:52.604Z,8.50
2022-10-30T18:31:22.686Z,9.00
2022-10-30T18:33:49.604Z,8.73
2022-10-30T18:36:19.520Z,9.93
2022-10-30T18:38:46.547Z,9.35
2022-10-30T18:41:19.912Z,8.15
2022-10-30T18:43:47.412Z,8.25
2022-10-30T18:46:15.634Z,8.43
2022-10-30T18:48:42.809Z,8.73
2022-10-30T18:51:23.488Z,8.15
2022-10-30T18:53:53.684Z,8.00
2022-10-30T18:56:26.655Z,8.50
2022-10-30T19:01:32.785Z,8.25
2022-10-30T19:04:04.431Z,8.20
2022-10-30T19:06:34.482Z,8.35
2022-10-30T19:09:01.694Z,8.63
2022-10-30T19:11:31.380Z,9.10
2022-10-30T19:13:59.360Z,9.18
2022-10-30T19:16:26.720Z,9.10
2022-10-30T19:18:53.821Z,9.02
2022-10-30T19:21:23.200Z,9.70
2022-10-30T19:23:50.214Z,10.02
2022-10-30T19:26:17.736Z,8.95
2022-10-30T19:28:45.834Z,8.50
2022-10-30T19:31:17.669Z,8.60
2022-10-30T19:33:45.064Z,7.38
2022-10-30T19:36:37.059Z,8.48
2022-10-30T19:39:16.883Z,8.40
2022-10-30T19:41:44.044Z,7.57
2022-10-30T19:44:11.228Z,7.45
2022-10-30T19:46:38.117Z,8.00
2022-10-30T19:49:19.221Z,8.35
2022-10-30T19:51:46.453Z,8.68
2022-10-30T19:54:13.375Z,9.07
2022-10-30T19:56:42.464Z,8.38
2022-10-30T19:59:11.727Z,9.27
2022-10-30T20:01:38.680Z,9.10
2022-10-30T20:04:05.633Z,9.00
2022-10-30T20:06:32.499Z,9.18
2022-10-30T20:09:02.441Z,8.90
2022-10-30T20:11:29.687Z,9.50
2022-10-30T20:13:56.552Z,8.93
2022-10-30T20:16:23.524Z,9.07
2022-10-30T20:18:50.911Z,8.90
2022-10-30T20:21:19.314Z,9.48
2022-10-30T20:23:46.214Z,9.45
2022-10-30T20:26:18.911Z,10.20
2022-10-30T20:28:46.049Z,9.80
2022-10-30T20:31:13.235Z,9.50
2022-10-30T20:33:40.271Z,9.07
2022-10-30T20:36:07.252Z,10.23
2022-10-30T20:38:34.836Z,10.00
2022-10-30T20:41:03.900Z,9.55
2022-10-30T20:43:39.087Z,9.80
2022-10-30T20:46:09.371Z,9.98
2022-10-30T20:48:36.280Z,10.48
2022-10-30T20:51:03.464Z,11.77
2022-10-30T20:53:30.641Z,9.75
2022-10-30T20:55:57.474Z,10.63
2022-10-30T20:58:24.974Z,10.50
2022-10-30T21:00:55.378Z,10.35
2022-10-30T21:03:22.402Z,11.23
2022-10-30T21:05:55.773Z,11.85
2022-10-30T21:08:22.644Z,11.55
2022-10-30T21:10:49.444Z,11.02
2022-10-30T21:13:16.247Z,11.20
2022-10-30T21:15:47.125Z,12.20
2022-10-30T21:18:13.948Z,11.45
2022-10-30T21:20:43.556Z,12.40
2022-10-30T21:23:10.520Z,11.57
2022-10-30T21:25:37.354Z,11.90
2022-10-30T21:28:04.406Z,12.38
2022-10-30T21:30:31.449Z,11.52
2022-10-30T21:32:59.289Z,12.75
2022-10-30T21:35:27.095Z,11.35
2022-10-30T21:37:54.003Z,11.93
2022-10-30T21:40:20.864Z,10.90
2022-10-30T21:42:48.844Z,12.60
2022-10-30T21:45:16.014Z,12.07
2022-10-30T21:47:42.780Z,12.88
2022-10-30T21:50:12.343Z,12.70
2022-10-30T21:52:40.357Z,11.98
2022-10-30T21:55:07.910Z,12.40
2022-10-30T21:57:35.129Z,11.43
2022-10-30T22:00:05.891Z,11.65
2022-10-30T22:02:34.811Z,13.07
2022-10-30T22:05:01.713Z,11.98
2022-10-30T22:07:28.551Z,11.75
2022-10-30T22:09:55.386Z,12.43
2022-10-30T22:12:22.176Z,12.52
2022-10-30T22:14:49.008Z,12.27
2022-10-30T22:17:15.967Z,13.00
2022-10-30T22:19:42.743Z,12.15
2022-10-30T22:22:11.114Z,13.13
2022-10-30T22:24:38.044Z,13.80
2022-10-30T22:27:05.002Z,13.80
2022-10-30T22:29:31.886Z,13.50
2022-10-30T22:31:58.715Z,14.27
2022-10-30T22:34:25.481Z,13.52
2022-10-30T22:36:52.271Z,13.63
2022-10-30T22:39:19.109Z,13.52
2022-10-30T22:41:45.876Z,13.02
2022-10-30T22:44:14.334Z,13.05
2022-10-30T22:46:41.475Z,13.38
2022-10-30T22:49:08.378Z,13.38
2022-10-30T22:51:37.385Z,13.40
2022-10-30T22:54:06.526Z,12.93
2022-10-30T22:56:35.483Z,12.93
2022-10-30T22:59:04.596Z,13.02
2022-10-30T23:01:34.090Z,13.23
2022-10-30T23:04:02.280Z,12.32
2022-10-30T23:06:30.988Z,12.75
2022-10-30T23:09:00.304Z,12.55
2022-10-30T23:11:28.597Z,12.77
2022-10-30T23:13:55.876Z,11.35
2022-10-30T23:16:24.746Z,12.43
2022-10-30T23:18:54.242Z,12.15
2022-10-30T23:21:23.207Z,11.90
2022-10-30T23:23:50.257Z,10.95
2022-10-30T23:26:25.728Z,11.85
2022-10-30T23:28:54.141Z,11.23
2022-10-30T23:31:23.132Z,12.70
2022-10-30T23:33:51.500Z,11.63
2022-10-30T23:36:19.076Z,11.30
2022-10-30T23:38:51.946Z,12.02
2022-10-30T23:41:20.131Z,11.80
2022-10-30T23:43:46.947Z,11.00
2022-10-30T23:46:13.884Z,11.82
2022-10-30T23:48:40.687Z,11.02
2022-10-30T23:51:08.680Z,10.80
2022-10-30T23:53:35.680Z,11.73
2022-10-30T23:56:03.529Z,10.77
2022-10-30T23:58:30.291Z,10.40
